Time;durP1;ratioP1;P1;durP2;ratioP2;P2;SDS_P1;SDS_P2;PMS_P1;PMS_P2;Temp;Humidity;BMP_temperature;BMP_pressure;BME280_temperature;BME280_humidity;BME280_pressure;Samples;Min_cycle;Max_cycle;Signal;HPM_P1;HPM_P2
2021/05/01 00:01:27;;;;;;;2.58;1.85;;;;;;;;;;5000015;28;20457;-75
2021/05/01 00:03:54;;;;;;;3.70;1.98;;;;;;;;;;5001927;28;20061;-75
2021/05/01 00:06:20;;;;;;;3.28;1.70;;;;;;;;;;4999944;28;20080;-75
2021/05/01 00:08:47;;;;;;;3.25;2.10;;;;;;;;;;5001521;28;20061;-75
2021/05/01 00:11:13;;;;;;;3.92;2.15;;;;;;;;;;4997338;28;20140;-75
2021/05/01 00:13:39;;;;;;;4.70;2.20;;;;;;;;;;5002038;28;20061;-75
2021/05/01 00:16:07;;;;;;;3.92;1.90;;;;;;;;;;5001308;28;20111;-75
2021/05/01 00:18:33;;;;;;;3.63;1.90;;;;;;;;;;5003739;28;20062;-75
2021/05/01 00:21:00;;;;;;;3.17;2.00;;;;;;;;;;5007037;28;20060;-75
2021/05/01 00:23:27;;;;;;;3.75;2.17;;;;;;;;;;5017180;28;20073;-76
2021/05/01 00:25:53;;;;;;;3.22;2.00;;;;;;;;;;5004556;28;20777;-75
2021/05/01 00:28:20;;;;;;;2.75;1.73;;;;;;;;;;5004512;28;20046;-75
2021/05/01 00:30:46;;;;;;;3.42;1.90;;;;;;;;;;5004823;28;20084;-75
2021/05/01 00:33:12;;;;;;;3.63;1.80;;;;;;;;;;5001175;28;20528;-74
2021/05/01 00:35:39;;;;;;;4.43;2.13;;;;;;;;;;5004883;28;20123;-76
2021/05/01 00:38:06;;;;;;;4.50;2.20;;;;;;;;;;5005474;28;20064;-75
2021/05/01 00:40:33;;;;;;;3.13;1.80;;;;;;;;;;5003385;28;20520;-75
2021/05/01 00:42:59;;;;;;;2.38;1.70;;;;;;;;;;5005525;28;20062;-75
2021/05/01 00:45:25;;;;;;;3.35;2.00;;;;;;;;;;5005323;28;20069;-74
2021/05/01 00:47:52;;;;;;;3.88;1.90;;;;;;;;;;5005148;28;20069;-75
2021/05/01 00:50:18;;;;;;;3.63;1.95;;;;;;;;;;5004123;28;20077;-74
2021/05/01 00:52:45;;;;;;;4.25;2.20;;;;;;;;;;5004129;28;20824;-75
2021/05/01 00:55:12;;;;;;;3.63;2.08;;;;;;;;;;5003766;28;20065;-75
2021/05/01 00:57:40;;;;;;;3.03;1.80;;;;;;;;;;5001295;28;20057;-76
2021/05/01 01:00:27;;;;;;;3.03;2.00;;;;;;;;;;5004422;28;20056;-76
2021/05/01 01:02:56;;;;;;;3.22;2.22;;;;;;;;;;4997407;28;20368;-75
2021/05/01 01:05:23;;;;;;;3.33;1.80;;;;;;;;;;5005737;28;20104;-75
2021/05/01 01:07:49;;;;;;;3.10;2.08;;;;;;;;;;5004312;28;20112;-75
2021/05/01 01:10:16;;;;;;;3.67;2.20;;;;;;;;;;5004222;28;20070;-74
2021/05/01 01:12:42;;;;;;;3.08;2.08;;;;;;;;;;5003111;28;20065;-78
2021/05/01 01:15:09;;;;;;;3.28;2.03;;;;;;;;;;5004665;28;20041;-77
2021/05/01 01:17:36;;;;;;;2.47;1.63;;;;;;;;;;5005006;28;20097;-76
2021/05/01 01:20:03;;;;;;;3.67;2.22;;;;;;;;;;5004709;28;20073;-76
2021/05/01 01:22:30;;;;;;;3.10;1.90;;;;;;;;;;5004329;28;20465;-74
2021/05/01 01:24:56;;;;;;;3.58;2.10;;;;;;;;;;5004165;28;20139;-73
2021/05/01 01:27:23;;;;;;;2.95;2.00;;;;;;;;;;5003369;28;20076;-74
2021/05/01 01:29:49;;;;;;;3.75;1.90;;;;;;;;;;5002452;28;20080;-74
2021/05/01 01:32:16;;;;;;;4.03;2.10;;;;;;;;;;5000609;28;20136;-73
2021/05/01 01:34:43;;;;;;;3.55;1.88;;;;;;;;;;5002102;28;20038;-74
2021/05/01 01:37:10;;;;;;;3.13;1.60;;;;;;;;;;5004130;28;20049;-73
2021/05/01 01:39:37;;;;;;;4.07;2.40;;;;;;;;;;5003222;28;20080;-74
2021/05/01 01:42:03;;;;;;;3.05;2.30;;;;;;;;;;5002840;28;20061;-74
2021/05/01 01:44:30;;;;;;;2.40;1.60;;;;;;;;;;5003650;28;20034;-75
2021/05/01 01:46:56;;;;;;;3.35;2.00;;;;;;;;;;5002623;28;20619;-75
2021/05/01 01:49:23;;;;;;;3.67;1.92;;;;;;;;;;5001815;28;20752;-75
2021/05/01 01:51:50;;;;;;;2.78;1.80;;;;;;;;;;5003556;28;20100;-74
2021/05/01 01:54:16;;;;;;;4.10;1.95;;;;;;;;;;5003639;28;20057;-72
2021/05/01 01:56:43;;;;;;;2.63;1.92;;;;;;;;;;5003172;28;20038;-74
2021/05/01 01:59:09;;;;;;;3.05;1.90;;;;;;;;;;5005271;28;20069;-78
2021/05/01 02:01:35;;;;;;;3.72;1.67;;;;;;;;;;5002229;28;20057;-77
2021/05/01 02:04:02;;;;;;;3.70;2.15;;;;;;;;;;5003025;28;20073;-75
2021/05/01 02:06:28;;;;;;;3.42;2.00;;;;;;;;;;5003523;28;20489;-75
2021/05/01 02:08:55;;;;;;;3.10;1.70;;;;;;;;;;5003388;28;20041;-75
2021/05/01 02:11:21;;;;;;;4.15;1.70;;;;;;;;;;5002746;28;20081;-75
2021/05/01 02:13:48;;;;;;;2.47;1.73;;;;;;;;;;5002826;28;20077;-75
2021/05/01 02:16:14;;;;;;;3.40;1.60;;;;;;;;;;5003111;28;20062;-75
2021/05/01 02:18:41;;;;;;;3.05;1.70;;;;;;;;;;5001290;28;20404;-75
2021/05/01 02:21:07;;;;;;;3.05;1.65;;;;;;;;;;5000578;28;20057;-76
2021/05/01 02:23:35;;;;;;;2.83;1.60;;;;;;;;;;5002574;28;20061;-76
2021/05/01 02:26:02;;;;;;;3.72;1.80;;;;;;;;;;5002755;28;20062;-75
2021/05/01 02:28:28;;;;;;;3.03;1.67;;;;;;;;;;5001695;28;20092;-75
2021/05/01 02:30:55;;;;;;;2.53;1.40;;;;;;;;;;5003658;28;20065;-75
2021/05/01 02:33:21;;;;;;;2.30;1.70;;;;;;;;;;5000445;28;20069;-75
2021/05/01 02:35:48;;;;;;;2.70;1.50;;;;;;;;;;5002006;28;20065;-75
2021/05/01 02:38:14;;;;;;;3.60;1.55;;;;;;;;;;5001739;28;20108;-74
2021/05/01 02:40:41;;;;;;;3.08;1.70;;;;;;;;;;5003031;28;20755;-74
2021/05/01 02:43:09;;;;;;;2.83;1.60;;;;;;;;;;5002581;28;20106;-74
2021/05/01 02:45:35;;;;;;;3.28;1.83;;;;;;;;;;5001064;28;20084;-75
2021/05/01 02:48:03;;;;;;;2.70;1.75;;;;;;;;;;5002235;28;20076;-74
2021/05/01 02:50:29;;;;;;;3.45;1.70;;;;;;;;;;4998493;28;20033;-74
2021/05/01 02:52:55;;;;;;;3.95;1.55;;;;;;;;;;5003536;28;20068;-74
2021/05/01 02:55:22;;;;;;;3.53;1.73;;;;;;;;;;5002235;28;20784;-75
2021/05/01 02:57:49;;;;;;;2.58;1.70;;;;;;;;;;5002438;28;20074;-75
2021/05/01 03:00:17;;;;;;;3.55;1.90;;;;;;;;;;5002439;28;20057;-76
2021/05/01 03:02:45;;;;;;;2.28;1.50;;;;;;;;;;5002393;28;20481;-76
2021/05/01 03:05:13;;;;;;;2.75;1.70;;;;;;;;;;5002471;28;20064;-76
2021/05/01 03:07:39;;;;;;;3.40;1.60;;;;;;;;;;5001724;28;20029;-74
2021/05/01 03:10:09;;;;;;;2.45;1.60;;;;;;;;;;5002872;28;20045;-75
2021/05/01 03:12:36;;;;;;;3.15;1.50;;;;;;;;;;5000817;28;20038;-76
2021/05/01 03:15:04;;;;;;;3.15;1.85;;;;;;;;;;5003436;28;20079;-76
2021/05/01 03:17:30;;;;;;;2.85;1.80;;;;;;;;;;5000712;28;20030;-75
2021/05/01 03:19:57;;;;;;;3.17;1.80;;;;;;;;;;5001468;28;20038;-75
2021/05/01 03:22:23;;;;;;;3.22;1.58;;;;;;;;;;5001258;28;20600;-75
2021/05/01 03:24:50;;;;;;;2.88;1.63;;;;;;;;;;5000580;28;20454;-75
2021/05/01 03:27:16;;;;;;;3.30;1.55;;;;;;;;;;5000184;28;20457;-75
2021/05/01 03:29:43;;;;;;;3.10;1.80;;;;;;;;;;5001061;28;20054;-76
2021/05/01 03:32:09;;;;;;;3.40;1.80;;;;;;;;;;5000992;28;20145;-75
2021/05/01 03:34:35;;;;;;;3.15;1.88;;;;;;;;;;4998841;28;20065;-75
2021/05/01 03:37:02;;;;;;;2.83;1.60;;;;;;;;;;4999882;28;20093;-75
2021/05/01 03:39:28;;;;;;;3.47;1.65;;;;;;;;;;5000458;28;20054;-75
2021/05/01 03:41:55;;;;;;;2.40;1.60;;;;;;;;;;5001267;28;20030;-75
2021/05/01 03:44:21;;;;;;;3.83;1.98;;;;;;;;;;4997329;28;20099;-74
2021/05/01 03:46:47;;;;;;;3.35;1.88;;;;;;;;;;5000906;28;20061;-75
2021/05/01 03:49:14;;;;;;;3.72;1.80;;;;;;;;;;5007409;28;20157;-74
2021/05/01 03:51:40;;;;;;;3.10;1.90;;;;;;;;;;5009248;28;20143;-74
2021/05/01 03:54:07;;;;;;;3.05;1.63;;;;;;;;;;5005026;28;20113;-74
2021/05/01 03:56:33;;;;;;;3.08;1.65;;;;;;;;;;5001707;28;20180;-75
2021/05/01 03:59:00;;;;;;;4.30;1.75;;;;;;;;;;4997819;28;20069;-74
2021/05/01 04:01:27;;;;;;;4.32;1.80;;;;;;;;;;5004482;28;20034;-74
2021/05/01 04:03:53;;;;;;;3.65;1.67;;;;;;;;;;5019864;28;20057;-74
2021/05/01 04:06:20;;;;;;;2.80;1.60;;;;;;;;;;5005164;28;20505;-75
2021/05/01 04:08:46;;;;;;;3.55;1.60;;;;;;;;;;5005294;28;20048;-75
2021/05/01 04:11:13;;;;;;;3.65;1.63;;;;;;;;;;5004776;28;20049;-72
2021/05/01 04:13:44;;;;;;;3.03;1.50;;;;;;;;;;5003078;28;20576;-75
2021/05/01 04:16:16;;;;;;;2.63;1.50;;;;;;;;;;5004335;28;20066;-75
2021/05/01 04:18:43;;;;;;;2.47;1.70;;;;;;;;;;5018479;28;20064;-75
2021/05/01 04:21:11;;;;;;;3.00;1.80;;;;;;;;;;5004665;28;20042;-74
2021/05/01 04:23:39;;;;;;;3.60;1.50;;;;;;;;;;5003034;28;20044;-75
2021/05/01 04:26:05;;;;;;;3.33;1.60;;;;;;;;;;5001643;28;20034;-73
2021/05/01 04:28:37;;;;;;;2.45;1.50;;;;;;;;;;5003140;28;20037;-74
2021/05/01 04:31:05;;;;;;;3.95;1.70;;;;;;;;;;5002736;28;20056;-74
2021/05/01 04:33:36;;;;;;;3.67;1.60;;;;;;;;;;5005606;28;21968;-74
2021/05/01 04:36:02;;;;;;;2.97;1.65;;;;;;;;;;5002831;28;20072;-74
2021/05/01 04:38:29;;;;;;;2.92;1.50;;;;;;;;;;5003582;28;20119;-74
2021/05/01 04:40:56;;;;;;;2.17;1.63;;;;;;;;;;5005856;28;20446;-75
2021/05/01 04:43:25;;;;;;;4.22;1.80;;;;;;;;;;5000471;28;20566;-75
2021/05/01 04:45:52;;;;;;;3.35;1.60;;;;;;;;;;5003741;28;20061;-74
2021/05/01 04:48:18;;;;;;;2.90;1.67;;;;;;;;;;5004058;28;20065;-75
2021/05/01 04:50:48;;;;;;;3.35;1.60;;;;;;;;;;5002915;28;20073;-74
2021/05/01 04:53:14;;;;;;;3.20;1.80;;;;;;;;;;5002815;28;20066;-74
2021/05/01 04:55:41;;;;;;;3.22;1.45;;;;;;;;;;5005183;28;20029;-74
2021/05/01 04:58:07;;;;;;;2.78;1.75;;;;;;;;;;5003423;28;20069;-75
2021/05/01 05:00:34;;;;;;;3.25;1.77;;;;;;;;;;5001941;28;20061;-75
2021/05/01 05:03:00;;;;;;;2.80;1.90;;;;;;;;;;5005089;28;20057;-75
2021/05/01 05:05:27;;;;;;;2.53;1.63;;;;;;;;;;5001548;28;20065;-75
2021/05/01 05:07:53;;;;;;;4.25;2.03;;;;;;;;;;5019093;28;20076;-75
2021/05/01 05:10:19;;;;;;;4.35;2.10;;;;;;;;;;5004189;28;20073;-74
2021/05/01 05:12:48;;;;;;;3.05;1.75;;;;;;;;;;5003718;28;20133;-74
2021/05/01 05:15:14;;;;;;;3.90;1.88;;;;;;;;;;5003579;28;20532;-73
2021/05/01 05:17:41;;;;;;;3.58;1.83;;;;;;;;;;5003239;28;20120;-75
2021/05/01 05:20:08;;;;;;;6.15;1.88;;;;;;;;;;5002276;28;20922;-74
2021/05/01 05:22:35;;;;;;;2.88;1.77;;;;;;;;;;5003243;28;20123;-75
2021/05/01 05:25:01;;;;;;;3.75;2.10;;;;;;;;;;5005420;28;20103;-75
2021/05/01 05:27:28;;;;;;;2.95;1.80;;;;;;;;;;5003241;28;20073;-76
2021/05/01 05:29:54;;;;;;;3.22;1.90;;;;;;;;;;5003591;28;21212;-75
2021/05/01 05:32:22;;;;;;;3.95;2.30;;;;;;;;;;5003851;28;20115;-76
2021/05/01 05:34:49;;;;;;;3.08;2.08;;;;;;;;;;5004547;28;20076;-75
2021/05/01 05:37:16;;;;;;;4.80;2.05;;;;;;;;;;5018109;28;20064;-75
2021/05/01 05:39:44;;;;;;;4.20;2.28;;;;;;;;;;5020738;28;20085;-75
2021/05/01 05:42:11;;;;;;;4.28;2.10;;;;;;;;;;5004937;28;20065;-76
2021/05/01 05:44:40;;;;;;;3.22;2.13;;;;;;;;;;5002855;28;20065;-76
2021/05/01 05:47:06;;;;;;;4.65;2.28;;;;;;;;;;5005179;28;20588;-74
2021/05/01 05:49:33;;;;;;;3.47;2.20;;;;;;;;;;5003676;28;20123;-74
2021/05/01 05:51:59;;;;;;;3.97;2.30;;;;;;;;;;5003822;28;20432;-75
2021/05/01 05:54:26;;;;;;;3.15;2.03;;;;;;;;;;5003523;28;20509;-75
2021/05/01 05:56:52;;;;;;;3.92;2.22;;;;;;;;;;5003662;28;20065;-74
2021/05/01 05:59:19;;;;;;;3.65;2.20;;;;;;;;;;5002385;28;20058;-74
2021/05/01 06:01:46;;;;;;;3.38;2.10;;;;;;;;;;5001917;28;20076;-74
2021/05/01 06:04:17;;;;;;;4.20;2.10;;;;;;;;;;5004104;28;20113;-74
2021/05/01 06:06:50;;;;;;;4.03;2.30;;;;;;;;;;4999947;28;20037;-74
2021/05/01 06:09:17;;;;;;;3.67;1.95;;;;;;;;;;5000696;28;20076;-74
2021/05/01 06:11:44;;;;;;;2.95;2.20;;;;;;;;;;5003200;28;20189;-74
2021/05/01 06:14:11;;;;;;;4.80;2.15;;;;;;;;;;5001159;28;20151;-75
2021/05/01 06:16:39;;;;;;;3.25;1.98;;;;;;;;;;4999232;28;20160;-73
2021/05/01 06:19:05;;;;;;;4.32;2.25;;;;;;;;;;5002983;28;20541;-74
2021/05/01 06:21:32;;;;;;;3.13;1.85;;;;;;;;;;4999591;28;20061;-74
2021/05/01 06:23:58;;;;;;;2.88;1.88;;;;;;;;;;5001732;28;20649;-74
2021/05/01 06:26:25;;;;;;;4.97;2.30;;;;;;;;;;5002337;28;20064;-74
2021/05/01 06:28:51;;;;;;;3.22;1.90;;;;;;;;;;5001878;28;20061;-75
2021/05/01 06:31:18;;;;;;;4.07;2.00;;;;;;;;;;5000079;28;20080;-75
2021/05/01 06:33:44;;;;;;;3.30;2.15;;;;;;;;;;5002717;28;20073;-75
2021/05/01 06:36:11;;;;;;;4.88;2.20;;;;;;;;;;5001975;28;20155;-74
2021/05/01 06:38:39;;;;;;;4.32;2.08;;;;;;;;;;5001270;28;20065;-75
2021/05/01 06:41:07;;;;;;;4.90;2.30;;;;;;;;;;5003416;28;20616;-75
2021/05/01 06:44:02;;;;;;;4.18;2.10;;;;;;;;;;5002820;28;20064;-76
2021/05/01 06:46:29;;;;;;;4.28;2.17;;;;;;;;;;5001086;28;20080;-77
2021/05/01 06:48:58;;;;;;;3.00;1.85;;;;;;;;;;5002037;28;20080;-76
2021/05/01 06:51:26;;;;;;;4.30;2.10;;;;;;;;;;5001927;28;20026;-76
2021/05/01 06:53:52;;;;;;;4.00;2.17;;;;;;;;;;5000823;28;20089;-74
2021/05/01 06:56:18;;;;;;;4.03;1.95;;;;;;;;;;5000436;28;20441;-75
2021/05/01 06:58:46;;;;;;;3.38;1.75;;;;;;;;;;5001706;28;20066;-77
2021/05/01 07:01:13;;;;;;;5.95;2.30;;;;;;;;;;5001590;28;20100;-75
2021/05/01 07:03:41;;;;;;;5.38;1.85;;;;;;;;;;4999901;28;20505;-76
2021/05/01 07:06:08;;;;;;;3.75;1.92;;;;;;;;;;5002022;28;20092;-76
2021/05/01 07:08:35;;;;;;;3.72;2.00;;;;;;;;;;5001663;28;20068;-75
2021/05/01 07:11:06;;;;;;;5.47;2.30;;;;;;;;;;5002315;28;20062;-75
2021/05/01 07:13:33;;;;;;;4.35;1.85;;;;;;;;;;5001778;28;20085;-75
2021/05/01 07:16:01;;;;;;;4.57;2.13;;;;;;;;;;5003077;28;20065;-75
2021/05/01 07:18:28;;;;;;;4.13;2.10;;;;;;;;;;4997324;28;20057;-75
2021/05/01 07:20:57;;;;;;;4.38;1.95;;;;;;;;;;5002142;28;20076;-77
2021/05/01 07:23:23;;;;;;;4.13;2.05;;;;;;;;;;5000799;28;20061;-75
2021/05/01 07:25:49;;;;;;;2.97;1.85;;;;;;;;;;5001758;28;20535;-75
2021/05/01 07:28:19;;;;;;;4.38;2.10;;;;;;;;;;5000293;28;20058;-76
2021/05/01 07:30:46;;;;;;;5.07;1.95;;;;;;;;;;5001809;28;20125;-74
2021/05/01 07:33:18;;;;;;;4.07;1.88;;;;;;;;;;5001443;28;20513;-75
2021/05/01 07:35:50;;;;;;;4.72;1.90;;;;;;;;;;4998398;28;21284;-74
2021/05/01 07:38:17;;;;;;;3.85;2.10;;;;;;;;;;5001344;28;20093;-74
2021/05/01 07:40:43;;;;;;;4.88;1.95;;;;;;;;;;5001793;28;20116;-75
2021/05/01 07:43:14;;;;;;;6.28;2.00;;;;;;;;;;5001676;28;20163;-74
2021/05/01 07:45:41;;;;;;;2.92;1.70;;;;;;;;;;4999989;28;20335;-75
2021/05/01 07:48:11;;;;;;;4.63;2.05;;;;;;;;;;5000955;28;20073;-75
2021/05/01 07:50:38;;;;;;;4.85;2.15;;;;;;;;;;5000663;28;20143;-74
2021/05/01 07:53:04;;;;;;;3.20;1.80;;;;;;;;;;5004437;28;20342;-75
2021/05/01 07:55:31;;;;;;;4.07;1.85;;;;;;;;;;4998945;28;20042;-75
2021/05/01 07:57:57;;;;;;;3.28;1.90;;;;;;;;;;5002268;28;20068;-75
2021/05/01 08:00:24;;;;;;;5.00;2.10;;;;;;;;;;5000023;28;20034;-75
2021/05/01 08:02:50;;;;;;;3.78;2.20;;;;;;;;;;5003137;28;20066;-75
2021/05/01 08:05:19;;;;;;;2.53;1.80;;;;;;;;;;5000319;28;20070;-74
2021/05/01 08:07:45;;;;;;;4.47;1.83;;;;;;;;;;5001052;28;20467;-75
2021/05/01 08:10:12;;;;;;;4.10;1.85;;;;;;;;;;5001659;28;20065;-75
2021/05/01 08:12:38;;;;;;;5.40;1.90;;;;;;;;;;4998653;28;20663;-75
2021/05/01 08:15:06;;;;;;;3.72;1.80;;;;;;;;;;5000649;28;20034;-76
2021/05/01 08:17:33;;;;;;;5.25;1.92;;;;;;;;;;4999846;28;20069;-75
2021/05/01 08:19:59;;;;;;;3.25;1.98;;;;;;;;;;5000266;28;20061;-75
2021/05/01 08:22:25;;;;;;;3.08;2.00;;;;;;;;;;4999690;28;20116;-75
2021/05/01 08:24:52;;;;;;;4.05;1.70;;;;;;;;;;5000887;28;20742;-75
2021/05/01 08:27:18;;;;;;;4.68;2.05;;;;;;;;;;4999972;28;20069;-76
2021/05/01 08:29:45;;;;;;;5.18;2.10;;;;;;;;;;5001593;28;20050;-75
2021/05/01 08:32:13;;;;;;;4.40;2.13;;;;;;;;;;5003104;28;20088;-75
2021/05/01 08:34:40;;;;;;;3.10;1.70;;;;;;;;;;4999406;28;20119;-75
2021/05/01 08:37:07;;;;;;;4.93;1.83;;;;;;;;;;5001145;28;20472;-75
2021/05/01 08:39:33;;;;;;;5.00;1.80;;;;;;;;;;5003082;28;20092;-76
2021/05/01 08:41:59;;;;;;;3.35;1.80;;;;;;;;;;5002967;28;20132;-75
2021/05/01 08:44:27;;;;;;;4.10;2.28;;;;;;;;;;5002294;28;20128;-75
2021/05/01 08:46:53;;;;;;;4.60;2.10;;;;;;;;;;5005452;28;20069;-75
2021/05/01 08:49:19;;;;;;;3.58;1.92;;;;;;;;;;5002467;28;20069;-74
2021/05/01 08:51:47;;;;;;;3.90;1.90;;;;;;;;;;5018685;28;20065;-75
2021/05/01 08:54:14;;;;;;;4.00;1.70;;;;;;;;;;5005561;28;20065;-75
2021/05/01 08:56:41;;;;;;;3.35;1.60;;;;;;;;;;5001857;28;20072;-75
2021/05/01 08:59:07;;;;;;;3.33;1.80;;;;;;;;;;5004589;28;20695;-75
2021/05/01 09:01:38;;;;;;;2.95;1.65;;;;;;;;;;5003497;28;20045;-76
2021/05/01 09:04:07;;;;;;;3.35;1.70;;;;;;;;;;5006012;28;20061;-78
2021/05/01 09:06:34;;;;;;;3.63;1.60;;;;;;;;;;5004484;28;20096;-75
2021/05/01 09:09:11;;;;;;;3.58;1.80;;;;;;;;;;5006844;28;20061;-75
2021/05/01 09:11:41;;;;;;;3.75;1.83;;;;;;;;;;5004319;28;20732;-76
2021/05/01 09:14:18;;;;;;;3.60;1.65;;;;;;;;;;5019552;28;20600;-76
2021/05/01 09:16:55;;;;;;;3.42;1.70;;;;;;;;;;5027962;28;20182;-76
2021/05/01 09:19:37;;;;;;;4.88;1.80;;;;;;;;;;5006279;28;20104;-75
2021/05/01 09:22:11;;;;;;;3.88;1.70;;;;;;;;;;5006359;28;20061;-75
2021/05/01 09:24:38;;;;;;;3.55;1.92;;;;;;;;;;5004169;28;20666;-75
2021/05/01 09:27:05;;;;;;;2.92;1.80;;;;;;;;;;5007512;28;20438;-75
2021/05/01 09:29:33;;;;;;;3.05;1.67;;;;;;;;;;5004205;28;20065;-75
2021/05/01 09:32:03;;;;;;;4.13;1.90;;;;;;;;;;5004343;28;20069;-75
2021/05/01 09:34:36;;;;;;;4.53;1.90;;;;;;;;;;5003586;28;20088;-75
2021/05/01 09:37:02;;;;;;;5.72;1.70;;;;;;;;;;5004281;28;20076;-74
2021/05/01 09:39:29;;;;;;;3.97;2.03;;;;;;;;;;5001058;28;20073;-74
2021/05/01 09:41:55;;;;;;;2.78;1.50;;;;;;;;;;5005750;28;20793;-74
2021/05/01 09:44:23;;;;;;;4.75;1.85;;;;;;;;;;5003672;28;20080;-73
2021/05/01 09:46:51;;;;;;;2.90;1.52;;;;;;;;;;5002678;28;20136;-74
2021/05/01 09:49:19;;;;;;;3.55;1.70;;;;;;;;;;5001775;28;20127;-74
2021/05/01 09:51:46;;;;;;;2.70;1.48;;;;;;;;;;5003543;28;20166;-75
2021/05/01 09:54:13;;;;;;;2.22;1.35;;;;;;;;;;4986754;28;20475;-74
2021/05/01 09:56:40;;;;;;;4.35;1.60;;;;;;;;;;5002727;28;20058;-73
2021/05/01 09:59:07;;;;;;;3.40;1.45;;;;;;;;;;5003337;28;20543;-74
2021/05/01 10:01:34;;;;;;;3.88;1.63;;;;;;;;;;5005177;28;20120;-74
2021/05/01 10:04:20;;;;;;;4.45;1.80;;;;;;;;;;5004164;28;20642;-74
2021/05/01 10:06:51;;;;;;;3.95;1.77;;;;;;;;;;5001225;28;20580;-74
2021/05/01 10:09:21;;;;;;;4.55;1.83;;;;;;;;;;5002256;28;20058;-74
2021/05/01 10:11:48;;;;;;;2.58;1.70;;;;;;;;;;5003070;28;20477;-73
2021/05/01 10:14:16;;;;;;;2.50;1.50;;;;;;;;;;5001563;28;20104;-72
2021/05/01 10:16:53;;;;;;;3.67;1.50;;;;;;;;;;5004296;28;20058;-74
2021/05/01 10:19:19;;;;;;;1.83;1.42;;;;;;;;;;5004444;28;20084;-74
2021/05/01 10:21:47;;;;;;;3.38;1.70;;;;;;;;;;5003454;28;20613;-74
2021/05/01 10:24:14;;;;;;;2.22;1.70;;;;;;;;;;5003640;28;20053;-75
2021/05/01 10:26:44;;;;;;;3.42;1.52;;;;;;;;;;5002392;28;20343;-74
2021/05/01 10:29:23;;;;;;;3.72;1.50;;;;;;;;;;5002478;28;20108;-74
2021/05/01 10:31:54;;;;;;;3.67;1.60;;;;;;;;;;4999615;28;20507;-74
2021/05/01 10:34:23;;;;;;;2.45;1.60;;;;;;;;;;5001533;28;20083;-75
2021/05/01 10:36:50;;;;;;;4.40;1.63;;;;;;;;;;5002840;28;20131;-75
2021/05/01 10:39:17;;;;;;;3.00;1.67;;;;;;;;;;5003927;28;20065;-74
2021/05/01 10:41:53;;;;;;;5.55;2.20;;;;;;;;;;5003594;28;20049;-75
2021/05/01 10:44:20;;;;;;;2.40;1.55;;;;;;;;;;5003368;28;20066;-75
2021/05/01 10:46:46;;;;;;;1.67;1.35;;;;;;;;;;5002373;28;20066;-75
2021/05/01 10:49:13;;;;;;;3.65;1.83;;;;;;;;;;5003644;28;20068;-74
2021/05/01 10:51:41;;;;;;;4.85;1.90;;;;;;;;;;5002863;28;20061;-75
2021/05/01 10:54:08;;;;;;;2.65;1.60;;;;;;;;;;5001742;28;20061;-74
2021/05/01 10:56:35;;;;;;;3.95;1.70;;;;;;;;;;5000213;28;20088;-75
2021/05/01 10:59:08;;;;;;;4.32;1.90;;;;;;;;;;5002104;28;20823;-75
2021/05/01 11:01:37;;;;;;;2.90;1.58;;;;;;;;;;5001367;28;20066;-75
2021/05/01 11:04:05;;;;;;;2.40;1.75;;;;;;;;;;5017367;28;20065;-75
2021/05/01 11:06:50;;;;;;;3.55;1.75;;;;;;;;;;5004503;28;20532;-76
2021/05/01 11:09:35;;;;;;;2.58;1.48;;;;;;;;;;5000639;28;20057;-74
2021/05/01 11:12:02;;;;;;;3.88;1.60;;;;;;;;;;5000332;28;20105;-75
2021/05/01 11:14:29;;;;;;;2.30;1.63;;;;;;;;;;5001331;28;20058;-74
2021/05/01 11:17:22;;;;;;;5.18;3.80;;;;;;;;;;5001757;28;20062;-76
2021/05/01 11:19:48;;;;;;;10.20;4.88;;;;;;;;;;5000774;28;20042;-83
2021/05/01 11:22:15;;;;;;;5.15;4.25;;;;;;;;;;4999730;28;20057;-80
2021/05/01 11:24:43;;;;;;;7.75;5.13;;;;;;;;;;4983476;28;20076;-82
2021/05/01 11:27:10;;;;;;;6.72;4.20;;;;;;;;;;5002484;28;20061;-87
2021/05/01 11:29:36;;;;;;;6.45;4.60;;;;;;;;;;4999627;28;20121;-83
2021/05/01 11:32:03;;;;;;;6.03;4.40;;;;;;;;;;5000363;28;20127;-83
2021/05/01 11:34:30;;;;;;;7.95;4.43;;;;;;;;;;5011182;28;20155;-85
2021/05/01 11:36:58;;;;;;;6.80;4.63;;;;;;;;;;4999503;28;20119;-85
2021/05/01 11:39:27;;;;;;;6.63;4.78;;;;;;;;;;4996444;28;20057;-85
2021/05/01 11:41:53;;;;;;;6.78;4.38;;;;;;;;;;4985500;28;20827;-84
2021/05/01 11:44:20;;;;;;;6.05;4.40;;;;;;;;;;4982320;28;20445;-86
2021/05/01 11:47:07;;;;;;;5.45;4.03;;;;;;;;;;5001599;28;20088;-85
2021/05/01 11:49:34;;;;;;;5.57;4.00;;;;;;;;;;4999346;28;20567;-85
2021/05/01 11:52:10;;;;;;;4.32;3.25;;;;;;;;;;4983448;28;20064;-85
2021/05/01 11:54:52;;;;;;;6.40;3.28;;;;;;;;;;4984436;28;20038;-84
2021/05/01 11:57:28;;;;;;;7.28;3.42;;;;;;;;;;5018640;28;20073;-84
2021/05/01 11:59:56;;;;;;;4.20;2.90;;;;;;;;;;4984872;28;20127;-83
2021/05/01 12:02:34;;;;;;;6.32;2.90;;;;;;;;;;5015388;28;20135;-85
2021/05/01 12:05:21;;;;;;;4.35;2.20;;;;;;;;;;5018256;28;20050;-85
2021/05/01 12:07:55;;;;;;;3.83;2.30;;;;;;;;;;5017336;28;20271;-84
2021/05/01 12:10:23;;;;;;;5.40;2.35;;;;;;;;;;5002158;28;20290;-83
2021/05/01 12:12:56;;;;;;;5.45;2.47;;;;;;;;;;5005093;28;20576;-84
2021/05/01 12:15:30;;;;;;;5.40;2.67;;;;;;;;;;4988658;28;20610;-84
2021/05/01 12:17:57;;;;;;;3.53;2.63;;;;;;;;;;5008286;28;20062;-85
2021/05/01 12:20:24;;;;;;;5.00;2.70;;;;;;;;;;4989777;28;20081;-84
2021/05/01 12:22:51;;;;;;;4.38;2.40;;;;;;;;;;5005432;28;20084;-84
2021/05/01 12:25:36;;;;;;;4.75;2.95;;;;;;;;;;4989346;28;20127;-83
2021/05/01 12:28:03;;;;;;;4.60;2.63;;;;;;;;;;4989596;28;20062;-85
2021/05/01 12:30:39;;;;;;;3.70;2.38;;;;;;;;;;4989856;28;20119;-85
2021/05/01 12:33:24;;;;;;;4.60;2.42;;;;;;;;;;4990963;28;20054;-86
2021/05/01 12:35:54;;;;;;;4.93;2.63;;;;;;;;;;5000207;28;20493;-85
2021/05/01 12:38:23;;;;;;;3.42;2.40;;;;;;;;;;5006496;28;20065;-84
2021/05/01 12:40:50;;;;;;;3.53;2.40;;;;;;;;;;4989352;28;20034;-84
2021/05/01 12:43:29;;;;;;;3.72;2.55;;;;;;;;;;5004423;28;20077;-83
2021/05/01 12:45:55;;;;;;;3.38;2.20;;;;;;;;;;5005918;28;20069;-85
2021/05/01 12:48:41;;;;;;;4.60;2.28;;;;;;;;;;4995450;28;20060;-84
2021/05/01 12:51:12;;;;;;;5.20;2.58;;;;;;;;;;4986679;28;20066;-84
2021/05/01 12:53:41;;;;;;;3.58;2.30;;;;;;;;;;5002785;28;20050;-85
2021/05/01 12:56:33;;;;;;;4.60;2.10;;;;;;;;;;5021000;28;20107;-84
2021/05/01 12:59:21;;;;;;;4.45;2.25;;;;;;;;;;5003483;28;20341;-85
2021/05/01 13:01:54;;;;;;;4.68;2.60;;;;;;;;;;5002744;28;20089;-84
2021/05/01 13:04:25;;;;;;;4.93;2.38;;;;;;;;;;4986668;28;20061;-86
2021/05/01 13:06:52;;;;;;;5.13;2.40;;;;;;;;;;5003756;28;20108;-84
2021/05/01 13:09:23;;;;;;;3.40;2.30;;;;;;;;;;5004249;28;20160;-84
2021/05/01 13:12:05;;;;;;;4.65;2.30;;;;;;;;;;5003463;28;20065;-85
2021/05/01 13:14:36;;;;;;;8.02;2.75;;;;;;;;;;5002676;28;20065;-84
2021/05/01 13:17:03;;;;;;;3.35;2.20;;;;;;;;;;5004958;28;20780;-85
2021/05/01 13:19:30;;;;;;;3.60;2.30;;;;;;;;;;5002208;28;20061;-84
2021/05/01 13:22:03;;;;;;;3.30;2.03;;;;;;;;;;4985831;28;20061;-84
2021/05/01 13:24:31;;;;;;;4.45;1.98;;;;;;;;;;4986837;28;20135;-84
2021/05/01 13:26:59;;;;;;;4.38;1.80;;;;;;;;;;4987751;28;20124;-84
2021/05/01 13:29:51;;;;;;;3.13;1.50;;;;;;;;;;4987302;28;20074;-84
2021/05/01 13:32:22;;;;;;;4.20;1.50;;;;;;;;;;4999396;28;20085;-84
2021/05/01 13:34:57;;;;;;;2.67;1.60;;;;;;;;;;5003155;28;20395;-84
2021/05/01 13:37:24;;;;;;;2.63;1.58;;;;;;;;;;4982271;28;20084;-84
2021/05/01 13:39:51;;;;;;;3.55;1.90;;;;;;;;;;5004073;28;20057;-83
2021/05/01 13:42:19;;;;;;;3.30;1.40;;;;;;;;;;5007766;28;20092;-83
2021/05/01 13:44:49;;;;;;;2.00;1.10;;;;;;;;;;4984357;28;20081;-83
2021/05/01 13:47:18;;;;;;;1.65;1.20;;;;;;;;;;4988181;28;20796;-83
2021/05/01 13:49:45;;;;;;;4.57;1.50;;;;;;;;;;4980904;28;20080;-85
2021/05/01 13:52:11;;;;;;;2.85;1.40;;;;;;;;;;5004979;28;20057;-84
2021/05/01 13:54:38;;;;;;;6.28;1.50;;;;;;;;;;5005725;28;20069;-85
2021/05/01 13:57:11;;;;;;;2.85;1.70;;;;;;;;;;5024221;28;20102;-85
2021/05/01 13:59:38;;;;;;;3.13;1.40;;;;;;;;;;5011238;28;20096;-85
2021/05/01 14:02:04;;;;;;;4.78;1.60;;;;;;;;;;5013070;28;20038;-85
2021/05/01 14:04:32;;;;;;;2.67;1.20;;;;;;;;;;4992690;28;20421;-84
2021/05/01 14:06:59;;;;;;;3.33;1.30;;;;;;;;;;5027494;28;20034;-84
2021/05/01 14:09:35;;;;;;;3.05;1.45;;;;;;;;;;5027155;28;20030;-84
2021/05/01 14:12:02;;;;;;;2.45;1.23;;;;;;;;;;5014867;28;20034;-84
2021/05/01 14:14:33;;;;;;;3.45;1.83;;;;;;;;;;5013330;28;20110;-82
2021/05/01 14:17:00;;;;;;;2.30;1.30;;;;;;;;;;5026688;28;20617;-82
2021/05/01 14:19:27;;;;;;;2.13;1.08;;;;;;;;;;5010831;28;20034;-72
2021/05/01 14:21:54;;;;;;;5.07;1.20;;;;;;;;;;5003579;28;20163;-72
2021/05/01 14:24:21;;;;;;;2.10;1.10;;;;;;;;;;4981083;28;20084;-73
2021/05/01 14:26:57;;;;;;;2.20;0.98;;;;;;;;;;5002001;28;20065;-73
2021/05/01 14:29:25;;;;;;;3.05;1.27;;;;;;;;;;5003809;28;20108;-72
2021/05/01 14:32:11;;;;;;;2.55;1.08;;;;;;;;;;5001245;28;20073;-72
2021/05/01 14:34:37;;;;;;;5.13;1.20;;;;;;;;;;5001996;28;20092;-72
2021/05/01 14:37:04;;;;;;;3.53;1.20;;;;;;;;;;5001686;28;20566;-73
2021/05/01 14:39:31;;;;;;;4.60;1.10;;;;;;;;;;5001651;28;20038;-72
2021/05/01 14:41:57;;;;;;;2.80;1.17;;;;;;;;;;5001346;28;20540;-72
2021/05/01 14:44:27;;;;;;;2.65;1.10;;;;;;;;;;5002843;28;20034;-72
2021/05/01 14:46:53;;;;;;;1.92;0.90;;;;;;;;;;5002585;28;20088;-73
2021/05/01 14:49:25;;;;;;;2.40;0.90;;;;;;;;;;4998321;28;20057;-73
2021/05/01 14:51:52;;;;;;;2.67;0.80;;;;;;;;;;5001509;28;20065;-72